Luna Pier, MI (48157)

8:33 AM EDT on May 25, 2015 (GMT -0400)
La Salle | | Change Station
CLOSE
Current Station
Personal Weather Station
Location: La Salle, MI
Elevation: 610 ft
Nearby Weather Stations

Elev 610 ft 41.87 °N, 83.47 °W | Updated 33 seconds ago

Mostly Cloudy
Mostly Cloudy
70.7 °F
Feels Like 75 °F
N
8.1
Wind Variable Wind from South
Gusts 9.8 mph

Today
High -- | Low -- °F
--% Chance of Precip.
Yesterday
High -- | Low -- °F
Precip. -- in
6:05 AM 8:56 PM
Waxing Crescent, 48% visible
Pressure 30.01 in
Visibility 10.0 miles
Clouds Clear
Heat Index 75 °F
Dew Point 58 °F
Humidity 63%
Rainfall 0.00 in
Snow Depth Not available.
UV 2.0 out of 12
Pollen 10.10 out of 12
Air Quality Not available.
Flu Activity Sporadic
METAR KTTF 251202Z AUTO 20008KT 10SM CLR 21/13 A3001 RMK AO2

More Conditions Fewer Conditions

Pressure 30.01 in
Visibility 10.0 miles
Clouds Clear
Heat Index 75 °F
Dew Point 58 °F
Humidity 63%
Rainfall 0.00 in
Snow Depth Not available.
UV 2.0 out of 12
Pollen 10.10 out of 12
Air Quality Not available.
Flu Activity Sporadic
METAR KTTF 251202Z AUTO 20008KT 10SM CLR 21/13 A3001 RMK AO2

More Conditions Fewer Conditions

10-Day Weather Forecast

Almanac

Astronomy

May. 25, 2015 Rise Set
Actual Time
Civil Twilight
Nautical Twilight
Astronomical Twilight
Moon
Length of Visible Light
Length of Day
Tomorrow will be .
, % of the Moon is Illuminated

Today's Extremes

State Highs State Lows

Community

WunderPhotos

Upload Photos

1,823,986 photos uploaded!

WunderBlogs® & News

Nearby

Air Quality

  Air Quality AQ Index Pollutant
Not available.

Snow Depth

Station Depth Elevation

Earthquake Activity

City Distance Mag. Time & Date
Minimum magnitude displayed is 2.5.

Coastal Water Temperatures

Place Temperature

Stations

Nearby Weather Stations

Station Location Temp. Windchill Dew Point Humidity Wind Precip. Elev Updated Type